Time;durP1;ratioP1;P1;durP2;ratioP2;P2;SDS_P1;SDS_P2;PMS_P1;PMS_P2;Temp;Humidity;BMP_temperature;BMP_pressure;BME280_temperature;BME280_humidity;BME280_pressure;Samples;Min_cycle;Max_cycle;Signal;HPM_P1;HPM_P2
2021/05/23 00:00:42;;;;;;;1.15;0.82;;;16.00;69.30;;;;;;5045913;28;20107;-60
2021/05/23 00:03:09;;;;;;;2.53;0.90;;;16.00;69.40;;;;;;5047701;28;20120;-60
2021/05/23 00:05:38;;;;;;;1.88;0.88;;;15.90;69.60;;;;;;5060216;28;20036;-59
2021/05/23 00:08:06;;;;;;;0.75;0.55;;;15.90;69.70;;;;;;5044468;28;20021;-60
2021/05/23 00:10:34;;;;;;;1.20;0.60;;;15.90;69.60;;;;;;5046355;28;20112;-60
2021/05/23 00:13:01;;;;;;;1.08;0.40;;;15.90;69.70;;;;;;5047035;28;20016;-60
2021/05/23 00:15:35;;;;;;;1.35;0.52;;;15.90;70.00;;;;;;5045534;28;20391;-60
2021/05/23 00:18:00;;;;;;;1.58;0.63;;;15.80;70.00;;;;;;5042487;28;20057;-60
2021/05/23 00:20:26;;;;;;;0.85;0.60;;;15.80;70.20;;;;;;5047226;28;20519;-60
2021/05/23 00:22:51;;;;;;;1.40;0.63;;;15.70;70.10;;;;;;5064853;28;20541;-60
2021/05/23 00:25:18;;;;;;;0.75;0.50;;;15.70;70.10;;;;;;5062155;28;20033;-60
2021/05/23 00:27:44;;;;;;;2.05;0.70;;;15.70;70.30;;;;;;5064347;28;20419;-60
2021/05/23 00:30:09;;;;;;;0.90;0.60;;;15.70;70.30;;;;;;5062953;28;20024;-60
2021/05/23 00:32:35;;;;;;;1.48;0.60;;;15.60;70.30;;;;;;5065674;28;20476;-61
2021/05/23 00:35:00;;;;;;;1.27;0.60;;;15.60;70.40;;;;;;5064415;28;20541;-60
2021/05/23 00:37:27;;;;;;;0.73;0.50;;;15.60;70.40;;;;;;5063161;28;20135;-59
2021/05/23 00:39:52;;;;;;;1.15;0.65;;;15.60;70.40;;;;;;5045622;28;20016;-60
2021/05/23 00:42:18;;;;;;;1.23;0.80;;;15.60;70.50;;;;;;5064961;28;20036;-60
2021/05/23 00:44:44;;;;;;;2.08;0.50;;;15.50;70.50;;;;;;5044877;28;20029;-60
2021/05/23 00:47:09;;;;;;;1.52;0.50;;;15.50;70.60;;;;;;5064698;28;20451;-60
2021/05/23 00:49:37;;;;;;;0.73;0.40;;;15.50;70.70;;;;;;5045122;28;20040;-60
2021/05/23 00:52:04;;;;;;;0.65;0.47;;;15.50;70.40;;;;;;5056707;28;20491;-60
2021/05/23 00:54:30;;;;;;;1.30;0.60;;;15.50;70.50;;;;;;5061059;28;20027;-60
2021/05/23 00:56:56;;;;;;;0.98;0.50;;;15.50;70.50;;;;;;5040872;28;20029;-60
2021/05/23 00:59:21;;;;;;;0.30;0.25;;;15.40;70.50;;;;;;5054434;28;20071;-60
2021/05/23 01:01:56;;;;;;;1.67;0.57;;;15.40;70.50;;;;;;5061327;28;20032;-60
2021/05/23 01:04:21;;;;;;;0.70;0.47;;;15.40;70.60;;;;;;5056697;28;20029;-60
2021/05/23 01:06:47;;;;;;;1.65;0.60;;;15.40;70.70;;;;;;5053660;28;20033;-61
2021/05/23 01:09:13;;;;;;;1.08;0.47;;;15.30;70.70;;;;;;5039035;28;20036;-60
2021/05/23 01:11:41;;;;;;;0.80;0.43;;;15.30;70.70;;;;;;5062264;28;20024;-60
2021/05/23 01:14:41;;;;;;;2.42;0.60;;;15.30;70.90;;;;;;5052503;28;20021;-60
2021/05/23 01:17:08;;;;;;;1.15;0.50;;;15.30;70.90;;;;;;5044054;28;20025;-60
2021/05/23 01:19:33;;;;;;;2.92;0.50;;;15.20;70.90;;;;;;5056048;28;20078;-60
2021/05/23 01:22:37;;;;;;;1.70;0.60;;;15.20;71.00;;;;;;5059429;28;20049;-60
2021/05/23 01:25:09;;;;;;;1.17;0.50;;;15.20;71.10;;;;;;5042101;28;20452;-60
2021/05/23 01:27:36;;;;;;;1.20;0.88;;;15.20;71.20;;;;;;5045475;28;20028;-60
2021/05/23 01:30:09;;;;;;;1.15;0.52;;;15.10;71.20;;;;;;5043071;28;20079;-61
2021/05/23 01:32:35;;;;;;;0.43;0.32;;;15.10;71.30;;;;;;5045308;28;20097;-60
2021/05/23 01:35:07;;;;;;;0.52;0.40;;;15.10;71.40;;;;;;5063774;28;20432;-60
2021/05/23 01:37:33;;;;;;;0.60;0.40;;;15.10;71.50;;;;;;5045476;28;20025;-61
2021/05/23 01:39:58;;;;;;;1.40;0.50;;;15.00;71.50;;;;;;5058819;28;20409;-61
2021/05/23 01:42:24;;;;;;;0.22;0.20;;;15.00;71.50;;;;;;5044180;28;20033;-60
2021/05/23 01:44:49;;;;;;;0.45;0.30;;;15.00;71.60;;;;;;5044033;28;20043;-60
2021/05/23 01:47:15;;;;;;;0.70;0.50;;;15.00;71.70;;;;;;5043197;28;20028;-61
2021/05/23 01:49:40;;;;;;;0.60;0.43;;;14.90;71.80;;;;;;5043612;28;20041;-60
2021/05/23 01:52:06;;;;;;;0.70;0.38;;;14.90;71.90;;;;;;5045598;28;20357;-60
2021/05/23 01:54:31;;;;;;;1.25;0.57;;;14.90;71.90;;;;;;5060978;28;20025;-60
2021/05/23 01:56:57;;;;;;;1.20;0.70;;;14.90;72.00;;;;;;5043114;28;20024;-61
2021/05/23 01:59:22;;;;;;;0.63;0.43;;;14.90;72.10;;;;;;5062216;28;20032;-61
2021/05/23 02:01:48;;;;;;;1.55;0.43;;;14.90;72.10;;;;;;5063560;28;20044;-61
2021/05/23 02:04:14;;;;;;;1.27;0.63;;;14.80;72.10;;;;;;5045974;28;20037;-60
2021/05/23 02:06:39;;;;;;;0.65;0.47;;;14.80;72.10;;;;;;5045144;28;20033;-60
2021/05/23 02:09:05;;;;;;;1.95;0.60;;;14.90;72.20;;;;;;5042444;28;20025;-60
2021/05/23 02:11:30;;;;;;;0.65;0.30;;;14.80;72.20;;;;;;5045581;28;20037;-60
2021/05/23 02:13:56;;;;;;;1.08;0.52;;;14.80;72.30;;;;;;5063297;28;20040;-61
2021/05/23 02:16:21;;;;;;;0.30;0.30;;;14.70;72.30;;;;;;5063596;28;20372;-60
2021/05/23 02:18:47;;;;;;;0.93;0.50;;;14.70;72.30;;;;;;5061346;28;20067;-60
2021/05/23 02:21:13;;;;;;;0.88;0.30;;;14.70;72.30;;;;;;5061975;28;20400;-60
2021/05/23 02:23:47;;;;;;;0.93;0.40;;;14.70;72.50;;;;;;5043986;28;20105;-60
2021/05/23 02:26:13;;;;;;;1.45;0.50;;;14.70;72.60;;;;;;5045117;28;20532;-60
2021/05/23 02:28:38;;;;;;;2.20;0.40;;;14.70;72.70;;;;;;5042443;28;20033;-60
2021/05/23 02:31:04;;;;;;;0.63;0.45;;;14.70;72.90;;;;;;5065632;28;20024;-60
2021/05/23 02:33:30;;;;;;;0.55;0.40;;;14.70;73.00;;;;;;5066799;28;20029;-60
2021/05/23 02:35:56;;;;;;;0.65;0.40;;;14.60;73.00;;;;;;5049991;28;20119;-60
2021/05/23 02:38:21;;;;;;;0.60;0.35;;;14.60;72.90;;;;;;5047051;28;20354;-60
2021/05/23 02:40:47;;;;;;;2.53;1.05;;;14.60;73.00;;;;;;5049271;28;20036;-60
2021/05/23 02:43:13;;;;;;;1.77;0.50;;;14.60;73.00;;;;;;5048345;28;20035;-60
2021/05/23 02:45:39;;;;;;;1.25;0.38;;;14.60;73.20;;;;;;5046694;28;20045;-60
2021/05/23 02:48:06;;;;;;;0.35;0.35;;;14.50;73.20;;;;;;5051071;28;20119;-60
2021/05/23 02:50:34;;;;;;;1.38;0.60;;;14.50;73.40;;;;;;5048715;28;20043;-60
2021/05/23 02:53:00;;;;;;;0.88;0.35;;;14.50;73.30;;;;;;5031989;28;20684;-60
2021/05/23 02:55:25;;;;;;;0.65;0.40;;;14.50;73.30;;;;;;5047716;28;20028;-60
2021/05/23 02:57:51;;;;;;;0.85;0.32;;;14.40;73.30;;;;;;5044246;28;20029;-61
2021/05/23 03:00:18;;;;;;;1.40;0.47;;;14.40;73.40;;;;;;5030652;28;20029;-60
2021/05/23 03:02:44;;;;;;;1.08;0.50;;;14.40;73.50;;;;;;5047030;28;20028;-60
2021/05/23 03:05:11;;;;;;;0.57;0.35;;;14.40;73.60;;;;;;5048306;28;20073;-60
2021/05/23 03:07:41;;;;;;;0.43;0.38;;;14.40;73.50;;;;;;5060709;28;20048;-60
2021/05/23 03:10:12;;;;;;;1.65;0.40;;;14.30;73.50;;;;;;5046725;28;20052;-61
2021/05/23 03:12:37;;;;;;;0.30;0.30;;;14.30;73.50;;;;;;5047347;28;20436;-60
2021/05/23 03:15:04;;;;;;;0.60;0.30;;;14.30;73.50;;;;;;5047776;28;20064;-60
2021/05/23 03:17:30;;;;;;;0.88;0.50;;;14.30;73.60;;;;;;5046808;28;20032;-60
2021/05/23 03:19:55;;;;;;;0.98;0.50;;;14.30;73.50;;;;;;5064809;28;20751;-60
2021/05/23 03:22:21;;;;;;;1.20;0.40;;;14.30;73.50;;;;;;5044536;28;20800;-60
2021/05/23 03:24:46;;;;;;;1.50;0.35;;;14.20;73.50;;;;;;5046672;28;20571;-61
2021/05/23 03:27:12;;;;;;;0.85;0.40;;;14.20;73.50;;;;;;5044337;28;20044;-60
2021/05/23 03:29:37;;;;;;;0.65;0.40;;;14.20;73.60;;;;;;5064613;28;20104;-60
2021/05/23 03:32:03;;;;;;;1.40;0.70;;;14.20;73.70;;;;;;5047569;28;20032;-60
2021/05/23 03:34:28;;;;;;;1.58;0.50;;;14.20;73.80;;;;;;5064915;28;20059;-60
2021/05/23 03:36:54;;;;;;;0.30;0.30;;;14.20;73.70;;;;;;5064393;28;20063;-61
2021/05/23 03:39:19;;;;;;;1.02;0.40;;;14.10;73.80;;;;;;5027509;28;20435;-60
2021/05/23 03:41:45;;;;;;;0.70;0.40;;;14.10;73.80;;;;;;5063811;28;20134;-61
2021/05/23 03:44:11;;;;;;;0.75;0.40;;;14.10;73.90;;;;;;5065754;28;20033;-60
2021/05/23 03:46:36;;;;;;;1.40;0.40;;;14.10;73.90;;;;;;5062792;28;20029;-60
2021/05/23 03:49:02;;;;;;;1.73;0.65;;;14.10;73.90;;;;;;5063755;28;20025;-60
2021/05/23 03:51:28;;;;;;;0.70;0.30;;;14.00;74.00;;;;;;5064179;28;20057;-60
2021/05/23 03:53:53;;;;;;;0.85;0.40;;;14.00;74.00;;;;;;5045529;28;20125;-60
2021/05/23 03:56:19;;;;;;;0.90;0.45;;;14.00;74.10;;;;;;5062907;28;20472;-60
2021/05/23 03:58:44;;;;;;;1.15;0.47;;;14.00;74.20;;;;;;5065286;28;20032;-60
2021/05/23 04:01:10;;;;;;;1.15;0.20;;;13.90;74.10;;;;;;5062678;28;20048;-60
2021/05/23 04:03:36;;;;;;;1.38;0.50;;;13.90;74.10;;;;;;5064864;28;20036;-60
2021/05/23 04:06:01;;;;;;;0.85;0.45;;;13.90;74.10;;;;;;5044523;28;20032;-60
2021/05/23 04:08:27;;;;;;;0.77;0.38;;;13.90;74.10;;;;;;5044276;28;20025;-61
2021/05/23 04:10:58;;;;;;;1.63;0.50;;;13.90;74.20;;;;;;5042096;28;20424;-60
2021/05/23 04:13:25;;;;;;;0.45;0.25;;;13.90;74.20;;;;;;5047547;28;20068;-60
2021/05/23 04:15:50;;;;;;;0.40;0.20;;;13.90;74.20;;;;;;5062997;28;20020;-60
2021/05/23 04:18:16;;;;;;;1.10;0.30;;;13.90;74.20;;;;;;5064460;28;20093;-60
2021/05/23 04:20:41;;;;;;;0.60;0.32;;;13.90;74.30;;;;;;5064478;28;20075;-60
2021/05/23 04:23:07;;;;;;;0.60;0.45;;;13.90;74.30;;;;;;5045402;28;20586;-61
2021/05/23 04:25:33;;;;;;;0.80;0.30;;;13.90;74.30;;;;;;5046135;28;20032;-60
2021/05/23 04:27:59;;;;;;;0.70;0.30;;;13.80;74.20;;;;;;5065785;28;20475;-60
2021/05/23 04:30:25;;;;;;;0.40;0.30;;;13.80;74.20;;;;;;5062690;28;20109;-61
2021/05/23 04:32:50;;;;;;;0.15;0.15;;;13.80;74.20;;;;;;5063362;28;20488;-61
2021/05/23 04:35:16;;;;;;;0.60;0.35;;;13.80;74.20;;;;;;5064006;28;20032;-60
2021/05/23 04:37:43;;;;;;;1.55;0.30;;;13.80;74.30;;;;;;5026051;28;20407;-60
2021/05/23 04:40:08;;;;;;;0.88;0.30;;;13.80;74.30;;;;;;5044911;28;20025;-60
2021/05/23 04:42:34;;;;;;;1.33;0.40;;;13.80;74.30;;;;;;5046518;28;20024;-60
2021/05/23 04:44:59;;;;;;;0.93;0.50;;;13.80;74.40;;;;;;5045349;28;20033;-60
2021/05/23 04:47:27;;;;;;;1.95;0.35;;;13.80;74.50;;;;;;5062905;28;20028;-60
2021/05/23 04:49:52;;;;;;;1.00;0.28;;;13.80;74.80;;;;;;5041715;28;20492;-60
2021/05/23 04:52:18;;;;;;;0.80;0.32;;;13.70;74.90;;;;;;5046769;28;20048;-60
2021/05/23 04:54:43;;;;;;;2.00;0.50;;;13.80;75.20;;;;;;5064546;28;20111;-60
2021/05/23 04:57:09;;;;;;;0.60;0.30;;;13.70;75.20;;;;;;5064462;28;20054;-60
2021/05/23 04:59:35;;;;;;;0.40;0.20;;;13.70;75.30;;;;;;5064875;28;20114;-60
2021/05/23 05:02:00;;;;;;;2.25;0.50;;;13.80;75.40;;;;;;5030352;28;20028;-60
2021/05/23 05:04:26;;;;;;;2.03;0.35;;;13.70;75.40;;;;;;5060398;28;20543;-61
2021/05/23 05:06:51;;;;;;;1.67;0.40;;;13.70;75.50;;;;;;5047826;28;20081;-60
2021/05/23 05:09:17;;;;;;;2.17;0.60;;;13.70;75.40;;;;;;5061303;28;20055;-60
2021/05/23 05:11:43;;;;;;;1.23;0.50;;;13.70;75.40;;;;;;5045880;28;20488;-60
2021/05/23 05:14:12;;;;;;;1.90;1.10;;;13.70;75.50;;;;;;5046504;28;20025;-61
2021/05/23 05:16:39;;;;;;;2.17;0.60;;;13.70;75.30;;;;;;5029939;28;20025;-60
2021/05/23 05:19:05;;;;;;;5.32;0.70;;;13.70;75.30;;;;;;5046837;28;20021;-60
2021/05/23 05:21:30;;;;;;;3.72;0.65;;;13.80;75.20;;;;;;5064287;28;20062;-60
2021/05/23 05:23:56;;;;;;;4.95;0.90;;;13.80;75.20;;;;;;5044537;28;20036;-60
2021/05/23 05:26:21;;;;;;;4.82;0.57;;;13.80;75.00;;;;;;5046190;28;20040;-60
2021/05/23 05:28:47;;;;;;;2.30;0.50;;;13.80;75.00;;;;;;5064121;28;20037;-60
2021/05/23 05:31:12;;;;;;;4.43;0.68;;;13.80;75.20;;;;;;5063929;28;20475;-60
2021/05/23 05:33:38;;;;;;;4.35;1.05;;;13.80;75.20;;;;;;5044059;28;21112;-60
2021/05/23 05:36:04;;;;;;;9.30;0.95;;;13.80;75.20;;;;;;5029934;28;20032;-60
2021/05/23 05:38:30;;;;;;;1.30;0.47;;;13.80;75.20;;;;;;5060046;28;20037;-61
2021/05/23 05:40:55;;;;;;;5.40;0.75;;;13.80;75.40;;;;;;5044627;28;20040;-60
2021/05/23 05:43:21;;;;;;;4.32;0.73;;;13.80;75.30;;;;;;5062864;28;20074;-61
2021/05/23 05:45:46;;;;;;;2.03;0.63;;;13.80;75.40;;;;;;5062953;28;20059;-60
2021/05/23 05:48:13;;;;;;;7.28;1.25;;;13.80;75.40;;;;;;5045181;28;20111;-61
2021/05/23 05:50:39;;;;;;;8.27;1.05;;;13.80;75.30;;;;;;5046445;28;20040;-60
2021/05/23 05:53:05;;;;;;;7.43;1.25;;;13.80;75.40;;;;;;5060974;28;20032;-60
2021/05/23 05:55:30;;;;;;;7.05;1.00;;;13.80;75.40;;;;;;5061828;28;20036;-60
2021/05/23 05:57:56;;;;;;;5.53;0.88;;;13.80;75.40;;;;;;5063107;28;20074;-60
2021/05/23 06:00:21;;;;;;;11.48;1.00;;;13.80;75.50;;;;;;5063252;28;20036;-60
2021/05/23 06:02:47;;;;;;;6.60;1.17;;;13.80;75.40;;;;;;5063226;28;20032;-61
2021/05/23 06:05:13;;;;;;;7.10;1.67;;;13.80;75.40;;;;;;5068205;28;20040;-60
2021/05/23 06:07:38;;;;;;;4.20;1.02;;;13.80;75.30;;;;;;5047806;28;20044;-60
2021/05/23 06:10:04;;;;;;;5.90;0.98;;;13.80;75.30;;;;;;5048895;28;20032;-60
2021/05/23 06:12:30;;;;;;;12.13;1.20;;;13.80;75.40;;;;;;5046940;28;20103;-60
2021/05/23 06:14:55;;;;;;;11.43;1.30;;;13.80;75.60;;;;;;5048783;28;20106;-60
2021/05/23 06:17:21;;;;;;;7.78;0.80;;;13.80;75.80;;;;;;5065996;28;20061;-60
2021/05/23 06:19:47;;;;;;;4.85;0.90;;;13.80;75.80;;;;;;5067722;28;20052;-60
2021/05/23 06:22:13;;;;;;;12.13;1.33;;;13.80;75.70;;;;;;5065369;28;20044;-60
2021/05/23 06:24:38;;;;;;;5.30;1.77;;;13.80;75.70;;;;;;5049312;28;20032;-60
2021/05/23 06:27:04;;;;;;;9.73;0.93;;;13.80;75.50;;;;;;5053298;28;20029;-60
2021/05/23 06:29:30;;;;;;;6.20;0.70;;;13.80;75.40;;;;;;5056492;28;20381;-61
2021/05/23 06:31:55;;;;;;;2.70;0.93;;;13.80;75.30;;;;;;5040145;28;20057;-60
2021/05/23 06:34:21;;;;;;;5.15;1.02;;;13.80;75.40;;;;;;5067958;28;20108;-60
2021/05/23 06:36:46;;;;;;;4.22;0.90;;;13.90;75.50;;;;;;5064044;28;20032;-60
2021/05/23 06:39:12;;;;;;;4.53;1.15;;;13.80;75.50;;;;;;5029947;28;21367;-60
2021/05/23 06:41:37;;;;;;;6.97;0.70;;;13.90;75.90;;;;;;5064521;28;20024;-60
2021/05/23 06:44:03;;;;;;;6.47;0.98;;;13.90;76.00;;;;;;5067067;28;20048;-60
2021/05/23 06:46:29;;;;;;;10.02;1.15;;;13.90;75.80;;;;;;5048560;28;20472;-60
2021/05/23 06:48:54;;;;;;;11.50;1.13;;;13.90;75.50;;;;;;5066935;28;20078;-60
2021/05/23 06:51:20;;;;;;;6.80;1.10;;;13.90;75.70;;;;;;5066347;28;20139;-61
2021/05/23 06:53:47;;;;;;;4.22;1.00;;;14.00;75.90;;;;;;5060083;28;20139;-60
2021/05/23 06:56:13;;;;;;;7.47;1.50;;;14.00;76.60;;;;;;5045888;28;20028;-60
2021/05/23 06:58:39;;;;;;;10.00;1.05;;;14.00;76.70;;;;;;5062883;28;20047;-60
2021/05/23 07:01:04;;;;;;;4.00;0.88;;;14.00;76.30;;;;;;5063205;28;20047;-60
2021/05/23 07:03:30;;;;;;;5.97;1.08;;;14.00;76.40;;;;;;5065889;28;20624;-60
2021/05/23 07:05:55;;;;;;;7.90;0.93;;;14.00;76.30;;;;;;5066123;28;20493;-60
2021/05/23 07:08:21;;;;;;;4.68;1.13;;;14.00;76.40;;;;;;5046223;28;20046;-60
2021/05/23 07:10:46;;;;;;;3.55;0.85;;;14.00;76.80;;;;;;5047139;28;20032;-60
2021/05/23 07:13:12;;;;;;;3.60;0.80;;;14.00;76.80;;;;;;5048349;28;20104;-60
2021/05/23 07:15:37;;;;;;;3.17;0.77;;;14.00;76.80;;;;;;5065413;28;20043;-60
2021/05/23 07:18:03;;;;;;;11.02;1.35;;;14.00;76.90;;;;;;5067226;28;20383;-60
2021/05/23 07:20:29;;;;;;;4.25;1.10;;;14.00;78.00;;;;;;5066265;28;20464;-60
2021/05/23 07:22:54;;;;;;;1.98;1.05;;;14.00;77.40;;;;;;5063818;28;20021;-60
2021/05/23 07:25:20;;;;;;;2.28;0.98;;;14.00;77.60;;;;;;5063932;28;20488;-60
2021/05/23 07:27:46;;;;;;;2.22;1.10;;;13.90;77.70;;;;;;5064712;28;20025;-60
2021/05/23 07:30:12;;;;;;;4.20;0.93;;;14.00;77.60;;;;;;5065883;28;20112;-60
2021/05/23 07:32:37;;;;;;;6.30;1.50;;;14.00;77.70;;;;;;5062679;28;20093;-60
2021/05/23 07:35:03;;;;;;;4.32;0.90;;;14.00;77.70;;;;;;5047427;28;20032;-60
2021/05/23 07:37:29;;;;;;;1.90;0.80;;;14.00;77.60;;;;;;5064827;28;20447;-60
2021/05/23 07:39:55;;;;;;;5.50;0.88;;;14.10;77.50;;;;;;5064415;28;20064;-60
2021/05/23 07:42:20;;;;;;;6.28;1.15;;;14.10;77.50;;;;;;5065018;28;20036;-60
2021/05/23 07:44:46;;;;;;;5.95;0.77;;;14.10;77.60;;;;;;5044771;28;20431;-60
2021/05/23 07:47:11;;;;;;;3.88;1.00;;;14.10;77.40;;;;;;5064992;28;20453;-60
2021/05/23 07:49:40;;;;;;;4.25;0.88;;;14.10;77.20;;;;;;5031434;28;20577;-60
2021/05/23 07:52:10;;;;;;;7.70;0.70;;;14.10;77.50;;;;;;5062206;28;20226;-60
2021/05/23 07:54:35;;;;;;;2.90;0.80;;;14.10;77.40;;;;;;5045770;28;20559;-60
2021/05/23 07:57:01;;;;;;;2.80;0.98;;;14.10;77.30;;;;;;5063481;28;20155;-60
2021/05/23 07:59:27;;;;;;;2.45;1.00;;;14.10;77.20;;;;;;5064517;28;20395;-59
2021/05/23 08:01:53;;;;;;;3.30;1.02;;;14.10;77.30;;;;;;5064026;28;20020;-60
2021/05/23 08:04:18;;;;;;;5.32;0.70;;;14.10;77.00;;;;;;5064284;28;20031;-60
2021/05/23 08:06:44;;;;;;;4.05;0.73;;;14.10;77.20;;;;;;5048028;28;20631;-60
2021/05/23 08:09:09;;;;;;;3.80;1.25;;;14.10;77.20;;;;;;5045270;28;20040;-60
2021/05/23 08:11:35;;;;;;;2.10;0.68;;;14.10;77.30;;;;;;5063878;28;20037;-60
2021/05/23 08:14:00;;;;;;;8.27;0.98;;;14.10;77.30;;;;;;5045102;28;20032;-60
2021/05/23 08:16:26;;;;;;;2.90;0.90;;;14.10;77.30;;;;;;5064832;28;20047;-60
2021/05/23 08:18:52;;;;;;;2.60;0.73;;;14.10;77.40;;;;;;5062920;28;20408;-60
2021/05/23 08:21:17;;;;;;;11.63;1.30;;;14.10;77.60;;;;;;5046429;28;20076;-60
2021/05/23 08:23:43;;;;;;;10.15;1.65;;;14.10;78.00;;;;;;5042689;28;20238;-60
2021/05/23 08:26:09;;;;;;;12.45;1.33;;;14.00;78.30;;;;;;5045509;28;20079;-60
2021/05/23 08:28:34;;;;;;;9.18;1.27;;;14.10;78.40;;;;;;5045372;28;20116;-60
2021/05/23 08:31:00;;;;;;;11.10;1.40;;;14.10;78.20;;;;;;5046216;28;20020;-60
2021/05/23 08:33:26;;;;;;;7.53;1.50;;;14.10;78.30;;;;;;5043547;28;20666;-60
2021/05/23 08:35:51;;;;;;;14.55;1.90;;;14.10;78.50;;;;;;5046196;28;20043;-60
2021/05/23 08:38:17;;;;;;;8.55;1.10;;;14.10;78.80;;;;;;5044916;28;20047;-60
2021/05/23 08:40:42;;;;;;;12.73;1.67;;;14.10;79.10;;;;;;5045621;28;20048;-60
2021/05/23 08:43:09;;;;;;;15.02;1.42;;;14.10;78.90;;;;;;5058043;28;20023;-60
2021/05/23 08:45:36;;;;;;;9.70;1.52;;;14.10;78.60;;;;;;5056434;28;20042;-60
2021/05/23 08:48:01;;;;;;;8.85;1.40;;;14.10;78.60;;;;;;5048573;28;21067;-60
2021/05/23 08:50:27;;;;;;;15.55;1.50;;;14.20;78.70;;;;;;5043223;28;20403;-60
2021/05/23 08:52:53;;;;;;;19.05;2.00;;;14.20;78.70;;;;;;5045032;28;20528;-60
2021/05/23 08:55:20;;;;;;;64.72;5.65;;;14.20;78.50;;;;;;5043806;28;20426;-60
2021/05/23 08:57:46;;;;;;;39.40;3.13;;;14.20;78.20;;;;;;5063871;28;20457;-60
2021/05/23 09:00:12;;;;;;;90.68;7.57;;;14.30;78.00;;;;;;5045305;28;20095;-60
2021/05/23 09:02:57;;;;;;;21.48;2.40;;;14.30;77.90;;;;;;5063041;28;20040;-63
2021/05/23 09:05:27;;;;;;;29.40;3.17;;;14.30;77.80;;;;;;5044589;28;20400;-60
2021/05/23 09:07:52;;;;;;;35.33;3.17;;;14.40;77.90;;;;;;5062950;28;20028;-60
2021/05/23 09:10:29;;;;;;;14.48;2.35;;;14.40;77.70;;;;;;5046343;28;20454;-60
2021/05/23 09:12:55;;;;;;;24.25;3.25;;;14.40;77.60;;;;;;5045295;28;20029;-60
2021/05/23 09:15:20;;;;;;;25.90;3.35;;;14.40;77.80;;;;;;5044597;28;20075;-60
2021/05/23 09:17:46;;;;;;;22.35;3.00;;;14.40;77.50;;;;;;5063099;28;20031;-60
2021/05/23 09:20:18;;;;;;;20.02;3.15;;;14.50;77.30;;;;;;5042636;28;20116;-60
2021/05/23 09:22:50;;;;;;;30.63;3.17;;;14.50;77.00;;;;;;5061400;28;20428;-60
2021/05/23 09:25:35;;;;;;;29.00;2.63;;;14.50;77.10;;;;;;5046103;28;20029;-60
2021/05/23 09:28:00;;;;;;;23.10;3.80;;;14.50;76.80;;;;;;5046314;28;20033;-60
2021/05/23 09:30:29;;;;;;;31.05;3.83;;;14.50;76.70;;;;;;5045008;28;20059;-60
2021/05/23 09:32:56;;;;;;;30.67;3.83;;;14.60;76.60;;;;;;5045265;28;20125;-59
2021/05/23 09:35:22;;;;;;;66.57;6.45;;;14.60;76.50;;;;;;5044161;28;20095;-60
2021/05/23 09:37:58;;;;;;;31.15;4.43;;;14.50;76.70;;;;;;5045997;28;20104;-60
2021/05/23 09:40:24;;;;;;;;;;;14.50;76.90;;;;;;5048985;28;20032;-60
2021/05/23 09:42:51;;;;;;;35.13;5.43;;;14.50;76.90;;;;;;5066733;28;19908;-60
2021/05/23 09:45:16;;;;;;;47.13;5.15;;;14.50;77.30;;;;;;5048324;28;20121;-60
2021/05/23 09:47:53;;;;;;;40.38;4.55;;;14.50;77.60;;;;;;5068320;28;20078;-60
2021/05/23 09:50:33;;;;;;;38.15;4.38;;;14.50;77.50;;;;;;5063198;28;20073;-60
2021/05/23 09:52:59;;;;;;;50.97;4.85;;;14.50;77.40;;;;;;5065889;28;20028;-60
2021/05/23 09:55:24;;;;;;;48.63;5.13;;;14.60;77.60;;;;;;5046792;28;20029;-60
2021/05/23 09:57:50;;;;;;;59.55;5.90;;;14.60;77.90;;;;;;5048188;28;20947;-60
2021/05/23 10:00:16;;;;;;;80.47;7.80;;;14.60;78.20;;;;;;5046853;28;20025;-60
2021/05/23 10:02:54;;;;;;;49.70;6.05;;;14.70;78.70;;;;;;5065094;28;20044;-60
2021/05/23 10:05:19;;;;;;;73.35;8.88;;;14.70;78.30;;;;;;5066563;28;20128;-60
2021/05/23 10:07:45;;;;;;;52.80;6.00;;;14.70;78.40;;;;;;5048499;28;20147;-60
2021/05/23 10:10:11;;;;;;;62.88;7.88;;;14.80;78.60;;;;;;5046193;28;20094;-60
2021/05/23 10:12:37;;;;;;;59.92;6.30;;;14.80;78.60;;;;;;5046179;28;20107;-60
2021/05/23 10:15:05;;;;;;;51.33;5.15;;;14.80;78.50;;;;;;5059780;28;20349;-60
2021/05/23 10:17:30;;;;;;;54.30;5.88;;;14.80;78.30;;;;;;5039449;28;20090;-60
2021/05/23 10:19:56;;;;;;;68.38;5.55;;;14.80;78.00;;;;;;5036902;28;20412;-60
2021/05/23 10:22:21;;;;;;;40.45;5.20;;;14.90;78.00;;;;;;5045648;28;20059;-60
2021/05/23 10:24:52;;;;;;;39.22;5.20;;;14.90;77.70;;;;;;5046787;28;20087;-60
2021/05/23 10:27:20;;;;;;;57.45;6.68;;;15.00;77.40;;;;;;5031574;28;20047;-60
2021/05/23 10:29:48;;;;;;;55.15;6.55;;;15.00;77.30;;;;;;5047610;28;20082;-60
2021/05/23 10:32:15;;;;;;;48.80;5.45;;;15.00;77.20;;;;;;5046942;28;20090;-60
2021/05/23 10:34:43;;;;;;;40.42;5.95;;;15.00;77.40;;;;;;5048499;28;20082;-60
2021/05/23 10:37:10;;;;;;;53.80;5.78;;;15.00;77.30;;;;;;5065584;28;20143;-60
2021/05/23 10:39:40;;;;;;;36.45;5.80;;;15.10;77.60;;;;;;5031257;28;20020;-60
2021/05/23 10:42:06;;;;;;;53.13;5.93;;;15.10;77.20;;;;;;5047904;28;20106;-60
2021/05/23 10:44:44;;;;;;;52.38;6.22;;;15.10;76.80;;;;;;5065757;28;20472;-60
2021/05/23 10:47:29;;;;;;;51.55;5.35;;;15.10;76.60;;;;;;5046916;28;20150;-60
2021/05/23 10:50:00;;;;;;;60.42;6.63;;;15.20;76.00;;;;;;5032019;28;20029;-60
2021/05/23 10:52:29;;;;;;;69.38;7.13;;;15.20;75.60;;;;;;5048921;28;20024;-60
2021/05/23 10:54:56;;;;;;;69.07;8.40;;;15.20;75.30;;;;;;5044772;28;20055;-60
2021/05/23 10:57:22;;;;;;;52.63;6.38;;;15.30;75.00;;;;;;5046238;28;20077;-60
2021/05/23 11:00:01;;;;;;;74.10;7.57;;;15.40;74.30;;;;;;5046765;28;20066;-60
2021/05/23 11:02:39;;;;;;;71.82;6.45;;;15.40;73.80;;;;;;5047711;28;20110;-60
2021/05/23 11:05:16;;;;;;;61.17;6.43;;;15.40;73.70;;;;;;5047541;28;20033;-60
2021/05/23 11:07:58;;;;;;;46.45;5.20;;;15.50;72.80;;;;;;5045150;28;20090;-60
2021/05/23 11:10:45;;;;;;;53.67;5.63;;;15.60;72.50;;;;;;5048717;28;20408;-60
2021/05/23 11:13:15;;;;;;;59.17;5.35;;;15.70;72.30;;;;;;5065249;28;20016;-60
2021/05/23 11:15:45;;;;;;;53.67;4.93;;;15.80;72.20;;;;;;5063722;28;20037;-60
2021/05/23 11:18:23;;;;;;;47.95;5.07;;;15.90;71.30;;;;;;5047584;28;20384;-60
2021/05/23 11:21:05;;;;;;;58.00;5.35;;;15.90;71.00;;;;;;5046672;28;20036;-60
2021/05/23 11:23:31;;;;;;;70.18;6.15;;;16.00;70.80;;;;;;5048862;28;20025;-60
2021/05/23 11:26:03;;;;;;;67.53;7.65;;;16.00;70.60;;;;;;5031927;28;20032;-60
2021/05/23 11:28:29;;;;;;;40.05;5.03;;;16.00;70.50;;;;;;5064581;28;20415;-60
2021/05/23 11:30:54;;;;;;;50.80;4.25;;;16.10;70.50;;;;;;5064030;28;20049;-60
2021/05/23 11:33:20;;;;;;;49.83;5.57;;;16.00;70.90;;;;;;5064983;28;20341;-60
2021/05/23 11:35:49;;;;;;;34.78;4.03;;;16.10;70.80;;;;;;5046725;28;20049;-60
2021/05/23 11:38:14;;;;;;;40.47;4.68;;;16.10;70.80;;;;;;5065342;28;20055;-60
2021/05/23 11:40:41;;;;;;;68.85;5.55;;;16.20;70.80;;;;;;5064597;28;20115;-60
2021/05/23 11:43:20;;;;;;;49.63;4.53;;;16.20;70.20;;;;;;5031042;28;20036;-60
2021/05/23 11:45:51;;;;;;;43.97;3.95;;;16.20;70.20;;;;;;5063084;28;20533;-59
2021/05/23 11:48:16;;;;;;;56.72;4.65;;;16.30;70.40;;;;;;5063582;28;20396;-60
2021/05/23 11:50:42;;;;;;;46.67;6.00;;;16.40;69.80;;;;;;5031038;28;20024;-60
2021/05/23 11:53:08;;;;;;;72.93;6.15;;;16.50;69.40;;;;;;5046292;28;20037;-60
2021/05/23 11:55:33;;;;;;;56.65;6.18;;;16.60;69.40;;;;;;5046702;28;20187;-60
2021/05/23 11:58:09;;;;;;;50.47;6.13;;;16.70;69.00;;;;;;5064789;28;20024;-60
2021/05/23 12:00:35;;;;;;;79.15;8.23;;;16.70;68.70;;;;;;5045566;28;20090;-60
2021/05/23 12:03:01;;;;;;;57.33;6.22;;;16.80;68.40;;;;;;5063690;28;20032;-60
2021/05/23 12:05:39;;;;;;;80.85;6.60;;;16.90;68.50;;;;;;5062296;28;20016;-60
2021/05/23 12:08:15;;;;;;;71.10;6.03;;;17.00;68.50;;;;;;5062253;28;20028;-60
2021/05/23 12:10:41;;;;;;;80.07;7.45;;;17.10;68.00;;;;;;5047706;28;20033;-60
2021/05/23 12:13:06;;;;;;;69.22;7.25;;;17.20;66.90;;;;;;5061317;28;20043;-60
2021/05/23 12:15:32;;;;;;;61.40;7.00;;;17.30;67.10;;;;;;5060371;28;20040;-60
2021/05/23 12:17:57;;;;;;;96.70;9.13;;;17.40;66.80;;;;;;5055590;28;20463;-60
2021/05/23 12:20:23;;;;;;;81.40;8.05;;;17.50;66.70;;;;;;5060375;28;20533;-61
2021/05/23 12:22:50;;;;;;;86.18;8.48;;;17.60;67.10;;;;;;5027261;28;20048;-64
2021/05/23 12:25:16;;;;;;;84.88;8.20;;;17.70;65.90;;;;;;5043794;28;20107;-59
2021/05/23 12:27:46;;;;;;;84.95;8.02;;;17.80;65.40;;;;;;5028405;28;20654;-61
2021/05/23 12:30:21;;;;;;;79.95;10.20;;;17.90;65.50;;;;;;5046821;28;20028;-60
2021/05/23 12:32:55;;;;;;;121.75;11.50;;;18.00;65.20;;;;;;5062468;28;20021;-60
2021/05/23 12:35:27;;;;;;;89.70;9.98;;;18.10;65.00;;;;;;5044885;28;20033;-60
2021/05/23 12:38:09;;;;;;;108.60;12.32;;;18.10;64.90;;;;;;5043962;28;20020;-60
2021/05/23 12:40:35;;;;;;;119.38;11.80;;;18.20;65.30;;;;;;5062468;28;20636;-60
2021/05/23 12:43:22;;;;;;;89.35;9.93;;;18.30;65.00;;;;;;5044650;28;20036;-60